sensor_id;sensor_type;location;lat;lon;timestamp;temperature;humidity
20690;DHT22;10504;48.762;8.996;2022-08-05T00:00:04;21.80;99.90
20690;DHT22;10504;48.762;8.996;2022-08-05T00:02:30;21.80;99.90
20690;DHT22;10504;48.762;8.996;2022-08-05T00:04:56;21.80;99.90
20690;DHT22;10504;48.762;8.996;2022-08-05T00:07:22;21.70;99.90
20690;DHT22;10504;48.762;8.996;2022-08-05T00:09:48;21.70;99.90
20690;DHT22;10504;48.762;8.996;2022-08-05T00:12:13;21.70;99.90
20690;DHT22;10504;48.762;8.996;2022-08-05T00:14:39;21.70;99.90
20690;DHT22;10504;48.762;8.996;2022-08-05T00:17:05;21.70;99.90
20690;DHT22;10504;48.762;8.996;2022-08-05T00:19:31;21.60;99.90
20690;DHT22;10504;48.762;8.996;2022-08-05T00:21:56;21.60;99.90
20690;DHT22;10504;48.762;8.996;2022-08-05T00:24:22;21.60;99.90
20690;DHT22;10504;48.762;8.996;2022-08-05T00:26:48;21.60;99.90
20690;DHT22;10504;48.762;8.996;2022-08-05T00:29:14;21.60;99.90
20690;DHT22;10504;48.762;8.996;2022-08-05T00:31:39;21.60;99.90
20690;DHT22;10504;48.762;8.996;2022-08-05T00:34:05;21.60;99.90
20690;DHT22;10504;48.762;8.996;2022-08-05T00:36:30;21.60;99.90
20690;DHT22;10504;48.762;8.996;2022-08-05T00:38:56;21.60;99.90
20690;DHT22;10504;48.762;8.996;2022-08-05T00:41:29;21.60;99.90
20690;DHT22;10504;48.762;8.996;2022-08-05T00:43:56;21.60;99.90
20690;DHT22;10504;48.762;8.996;2022-08-05T00:46:22;21.50;99.90
20690;DHT22;10504;48.762;8.996;2022-08-05T00:48:48;21.50;99.90
20690;DHT22;10504;48.762;8.996;2022-08-05T00:51:14;21.50;99.90
20690;DHT22;10504;48.762;8.996;2022-08-05T00:53:40;21.40;99.90
20690;DHT22;10504;48.762;8.996;2022-08-05T00:56:06;21.40;99.90
20690;DHT22;10504;48.762;8.996;2022-08-05T00:58:31;21.40;99.90
20690;DHT22;10504;48.762;8.996;2022-08-05T01:00:57;21.40;99.90
20690;DHT22;10504;48.762;8.996;2022-08-05T01:03:23;21.50;99.90
20690;DHT22;10504;48.762;8.996;2022-08-05T01:05:50;21.60;99.90
20690;DHT22;10504;48.762;8.996;2022-08-05T01:08:16;21.60;99.90
20690;DHT22;10504;48.762;8.996;2022-08-05T01:10:53;21.70;99.90
20690;DHT22;10504;48.762;8.996;2022-08-05T01:13:44;21.80;99.90
20690;DHT22;10504;48.762;8.996;2022-08-05T01:16:32;21.90;99.90
20690;DHT22;10504;48.762;8.996;2022-08-05T01:19:14;22.00;99.90
20690;DHT22;10504;48.762;8.996;2022-08-05T01:21:48;22.20;99.90
20690;DHT22;10504;48.762;8.996;2022-08-05T01:27:18;22.40;99.90
20690;DHT22;10504;48.762;8.996;2022-08-05T01:29:53;22.50;99.90
20690;DHT22;10504;48.762;8.996;2022-08-05T01:32:22;22.60;99.90
20690;DHT22;10504;48.762;8.996;2022-08-05T01:34:59;22.60;99.90
20690;DHT22;10504;48.762;8.996;2022-08-05T01:37:41;22.70;99.90
20690;DHT22;10504;48.762;8.996;2022-08-05T01:40:09;22.60;99.90
20690;DHT22;10504;48.762;8.996;2022-08-05T01:42:37;22.70;99.90
20690;DHT22;10504;48.762;8.996;2022-08-05T01:45:05;22.60;99.90
20690;DHT22;10504;48.762;8.996;2022-08-05T01:47:33;22.60;99.90
20690;DHT22;10504;48.762;8.996;2022-08-05T01:50:01;22.60;99.90
20690;DHT22;10504;48.762;8.996;2022-08-05T01:52:29;22.60;99.90
20690;DHT22;10504;48.762;8.996;2022-08-05T01:54:58;22.60;99.90
20690;DHT22;10504;48.762;8.996;2022-08-05T01:57:29;22.50;99.90
20690;DHT22;10504;48.762;8.996;2022-08-05T01:59:59;22.60;99.90
20690;DHT22;10504;48.762;8.996;2022-08-05T02:02:27;22.60;99.90
20690;DHT22;10504;48.762;8.996;2022-08-05T02:05:00;22.50;99.90
20690;DHT22;10504;48.762;8.996;2022-08-05T02:07:26;22.60;99.90
20690;DHT22;10504;48.762;8.996;2022-08-05T02:09:52;22.60;99.90
20690;DHT22;10504;48.762;8.996;2022-08-05T02:12:32;22.60;99.90
20690;DHT22;10504;48.762;8.996;2022-08-05T02:15:16;22.60;99.90
20690;DHT22;10504;48.762;8.996;2022-08-05T02:18:10;22.50;99.90
20690;DHT22;10504;48.762;8.996;2022-08-05T02:20:56;22.50;99.90
20690;DHT22;10504;48.762;8.996;2022-08-05T02:23:29;22.50;99.90
20690;DHT22;10504;48.762;8.996;2022-08-05T02:25:56;22.50;99.90
20690;DHT22;10504;48.762;8.996;2022-08-05T02:28:28;22.50;99.90
20690;DHT22;10504;48.762;8.996;2022-08-05T02:31:22;22.50;99.90
20690;DHT22;10504;48.762;8.996;2022-08-05T02:33:58;22.40;99.90
20690;DHT22;10504;48.762;8.996;2022-08-05T02:36:27;22.40;99.90
20690;DHT22;10504;48.762;8.996;2022-08-05T02:38:55;22.40;99.90
20690;DHT22;10504;48.762;8.996;2022-08-05T02:41:23;22.30;99.90
20690;DHT22;10504;48.762;8.996;2022-08-05T02:43:50;22.30;99.90
20690;DHT22;10504;48.762;8.996;2022-08-05T02:46:17;22.30;99.90
20690;DHT22;10504;48.762;8.996;2022-08-05T02:48:45;22.30;99.90
20690;DHT22;10504;48.762;8.996;2022-08-05T02:51:12;22.30;99.90
20690;DHT22;10504;48.762;8.996;2022-08-05T02:53:39;22.20;99.90
20690;DHT22;10504;48.762;8.996;2022-08-05T02:56:07;22.20;99.90
20690;DHT22;10504;48.762;8.996;2022-08-05T02:58:37;22.20;99.90
20690;DHT22;10504;48.762;8.996;2022-08-05T03:01:03;22.20;99.90
20690;DHT22;10504;48.762;8.996;2022-08-05T03:03:31;22.10;99.90
20690;DHT22;10504;48.762;8.996;2022-08-05T03:05:57;22.10;99.90
20690;DHT22;10504;48.762;8.996;2022-08-05T03:08:24;22.10;99.90
20690;DHT22;10504;48.762;8.996;2022-08-05T03:10:49;22.10;99.90
20690;DHT22;10504;48.762;8.996;2022-08-05T03:13:16;22.10;99.90
20690;DHT22;10504;48.762;8.996;2022-08-05T03:15:43;22.10;99.90
20690;DHT22;10504;48.762;8.996;2022-08-05T03:18:10;22.10;99.90
20690;DHT22;10504;48.762;8.996;2022-08-05T03:20:37;22.10;99.90
20690;DHT22;10504;48.762;8.996;2022-08-05T03:23:05;22.10;99.90
20690;DHT22;10504;48.762;8.996;2022-08-05T03:25:32;22.00;99.90
20690;DHT22;10504;48.762;8.996;2022-08-05T03:27:59;21.90;99.90
20690;DHT22;10504;48.762;8.996;2022-08-05T03:30:25;21.80;99.90
20690;DHT22;10504;48.762;8.996;2022-08-05T03:32:51;21.70;99.90
20690;DHT22;10504;48.762;8.996;2022-08-05T03:35:19;21.60;99.90
20690;DHT22;10504;48.762;8.996;2022-08-05T03:37:44;21.60;99.90
20690;DHT22;10504;48.762;8.996;2022-08-05T03:40:10;21.50;99.90
20690;DHT22;10504;48.762;8.996;2022-08-05T03:42:37;21.40;99.90
20690;DHT22;10504;48.762;8.996;2022-08-05T03:45:05;21.40;99.90
20690;DHT22;10504;48.762;8.996;2022-08-05T03:47:31;21.30;99.90
20690;DHT22;10504;48.762;8.996;2022-08-05T03:49:57;21.30;99.90
20690;DHT22;10504;48.762;8.996;2022-08-05T03:52:26;21.20;99.90
20690;DHT22;10504;48.762;8.996;2022-08-05T03:55:00;21.20;99.90
20690;DHT22;10504;48.762;8.996;2022-08-05T03:57:29;21.20;99.90
20690;DHT22;10504;48.762;8.996;2022-08-05T04:00:04;21.20;99.90
20690;DHT22;10504;48.762;8.996;2022-08-05T04:02:31;21.10;99.90
20690;DHT22;10504;48.762;8.996;2022-08-05T04:04:59;21.10;99.90
20690;DHT22;10504;48.762;8.996;2022-08-05T04:07:25;21.00;99.90
20690;DHT22;10504;48.762;8.996;2022-08-05T04:09:55;21.00;99.90
20690;DHT22;10504;48.762;8.996;2022-08-05T04:12:21;21.00;99.90
20690;DHT22;10504;48.762;8.996;2022-08-05T04:14:47;21.00;99.90
20690;DHT22;10504;48.762;8.996;2022-08-05T04:17:13;21.00;99.90
20690;DHT22;10504;48.762;8.996;2022-08-05T04:19:44;20.90;99.90
20690;DHT22;10504;48.762;8.996;2022-08-05T04:22:10;20.90;99.90
20690;DHT22;10504;48.762;8.996;2022-08-05T04:24:40;20.90;99.90
20690;DHT22;10504;48.762;8.996;2022-08-05T04:27:06;20.90;99.90
20690;DHT22;10504;48.762;8.996;2022-08-05T04:29:32;20.90;99.90
20690;DHT22;10504;48.762;8.996;2022-08-05T04:31:58;20.90;99.90
20690;DHT22;10504;48.762;8.996;2022-08-05T04:34:24;20.90;99.90
20690;DHT22;10504;48.762;8.996;2022-08-05T04:36:49;20.90;99.90
20690;DHT22;10504;48.762;8.996;2022-08-05T04:39:15;20.90;99.90
20690;DHT22;10504;48.762;8.996;2022-08-05T04:41:41;20.90;99.90
20690;DHT22;10504;48.762;8.996;2022-08-05T04:44:06;20.90;99.90
20690;DHT22;10504;48.762;8.996;2022-08-05T04:46:32;20.80;99.90
20690;DHT22;10504;48.762;8.996;2022-08-05T04:48:58;20.80;99.90
20690;DHT22;10504;48.762;8.996;2022-08-05T04:51:23;20.80;99.90
20690;DHT22;10504;48.762;8.996;2022-08-05T04:53:49;20.80;99.90
20690;DHT22;10504;48.762;8.996;2022-08-05T04:56:14;20.80;99.90
20690;DHT22;10504;48.762;8.996;2022-08-05T04:58:40;20.70;99.90
20690;DHT22;10504;48.762;8.996;2022-08-05T05:01:06;20.80;99.90
20690;DHT22;10504;48.762;8.996;2022-08-05T05:03:32;20.80;99.90
20690;DHT22;10504;48.762;8.996;2022-08-05T05:05:57;20.80;99.90
20690;DHT22;10504;48.762;8.996;2022-08-05T05:08:23;20.80;99.90
20690;DHT22;10504;48.762;8.996;2022-08-05T05:10:49;20.90;99.90
20690;DHT22;10504;48.762;8.996;2022-08-05T05:13:16;21.00;99.90
20690;DHT22;10504;48.762;8.996;2022-08-05T05:15:43;21.00;99.90
20690;DHT22;10504;48.762;8.996;2022-08-05T05:18:13;21.10;99.90
20690;DHT22;10504;48.762;8.996;2022-08-05T05:20:42;21.10;99.90
20690;DHT22;10504;48.762;8.996;2022-08-05T05:23:07;21.10;99.90
20690;DHT22;10504;48.762;8.996;2022-08-05T05:25:33;21.20;99.90
20690;DHT22;10504;48.762;8.996;2022-08-05T05:27:59;21.20;99.90
20690;DHT22;10504;48.762;8.996;2022-08-05T05:30:24;21.20;99.90
20690;DHT22;10504;48.762;8.996;2022-08-05T05:32:50;21.30;99.90
20690;DHT22;10504;48.762;8.996;2022-08-05T05:35:16;21.30;99.90
20690;DHT22;10504;48.762;8.996;2022-08-05T05:37:53;21.40;99.90
20690;DHT22;10504;48.762;8.996;2022-08-05T05:40:21;21.40;99.90
20690;DHT22;10504;48.762;8.996;2022-08-05T05:42:47;21.50;99.90
20690;DHT22;10504;48.762;8.996;2022-08-05T05:45:13;21.50;99.90
20690;DHT22;10504;48.762;8.996;2022-08-05T05:47:40;21.60;99.90
20690;DHT22;10504;48.762;8.996;2022-08-05T05:50:10;21.70;99.90
20690;DHT22;10504;48.762;8.996;2022-08-05T05:52:36;21.80;99.90
20690;DHT22;10504;48.762;8.996;2022-08-05T05:55:06;21.90;99.90
20690;DHT22;10504;48.762;8.996;2022-08-05T05:57:36;21.90;99.90
20690;DHT22;10504;48.762;8.996;2022-08-05T06:00:08;21.90;99.90
20690;DHT22;10504;48.762;8.996;2022-08-05T06:02:34;22.00;99.90
20690;DHT22;10504;48.762;8.996;2022-08-05T06:05:00;22.00;99.90
20690;DHT22;10504;48.762;8.996;2022-08-05T06:07:26;22.00;99.90
20690;DHT22;10504;48.762;8.996;2022-08-05T06:09:51;22.10;99.90
20690;DHT22;10504;48.762;8.996;2022-08-05T06:12:17;22.10;99.90
20690;DHT22;10504;48.762;8.996;2022-08-05T06:14:43;22.20;99.90
20690;DHT22;10504;48.762;8.996;2022-08-05T06:17:12;22.20;99.90
20690;DHT22;10504;48.762;8.996;2022-08-05T06:19:38;22.20;99.90
20690;DHT22;10504;48.762;8.996;2022-08-05T06:22:05;22.20;99.90
20690;DHT22;10504;48.762;8.996;2022-08-05T06:24:33;22.20;99.90
20690;DHT22;10504;48.762;8.996;2022-08-05T06:26:58;22.20;99.90
20690;DHT22;10504;48.762;8.996;2022-08-05T06:29:25;22.20;99.90
20690;DHT22;10504;48.762;8.996;2022-08-05T06:31:51;22.20;99.90
20690;DHT22;10504;48.762;8.996;2022-08-05T06:34:17;22.30;99.90
20690;DHT22;10504;48.762;8.996;2022-08-05T06:36:43;22.30;99.90
20690;DHT22;10504;48.762;8.996;2022-08-05T06:39:08;22.30;99.90
20690;DHT22;10504;48.762;8.996;2022-08-05T06:41:34;22.40;99.90
20690;DHT22;10504;48.762;8.996;2022-08-05T06:44:00;22.50;99.90
20690;DHT22;10504;48.762;8.996;2022-08-05T06:46:25;22.60;99.90
20690;DHT22;10504;48.762;8.996;2022-08-05T06:48:51;22.70;99.90
20690;DHT22;10504;48.762;8.996;2022-08-05T06:51:17;22.80;99.90
20690;DHT22;10504;48.762;8.996;2022-08-05T06:53:42;22.80;99.90
20690;DHT22;10504;48.762;8.996;2022-08-05T06:56:08;22.80;99.90
20690;DHT22;10504;48.762;8.996;2022-08-05T06:58:34;22.80;99.90
20690;DHT22;10504;48.762;8.996;2022-08-05T07:01:01;22.80;99.90
20690;DHT22;10504;48.762;8.996;2022-08-05T07:03:27;22.90;99.90
20690;DHT22;10504;48.762;8.996;2022-08-05T07:05:54;22.90;99.90
20690;DHT22;10504;48.762;8.996;2022-08-05T07:08:20;22.90;99.90
20690;DHT22;10504;48.762;8.996;2022-08-05T07:10:50;22.90;99.90
20690;DHT22;10504;48.762;8.996;2022-08-05T07:13:16;22.90;99.90
20690;DHT22;10504;48.762;8.996;2022-08-05T07:16:00;22.90;99.90
20690;DHT22;10504;48.762;8.996;2022-08-05T07:18:45;23.00;99.90
20690;DHT22;10504;48.762;8.996;2022-08-05T07:21:10;23.10;99.90
20690;DHT22;10504;48.762;8.996;2022-08-05T07:23:36;23.10;99.90
20690;DHT22;10504;48.762;8.996;2022-08-05T07:26:03;23.10;99.90
20690;DHT22;10504;48.762;8.996;2022-08-05T07:28:28;23.10;99.90
20690;DHT22;10504;48.762;8.996;2022-08-05T07:30:55;23.20;99.90
20690;DHT22;10504;48.762;8.996;2022-08-05T07:33:21;23.20;99.90
20690;DHT22;10504;48.762;8.996;2022-08-05T07:35:47;23.40;99.90
20690;DHT22;10504;48.762;8.996;2022-08-05T07:38:14;23.40;99.90
20690;DHT22;10504;48.762;8.996;2022-08-05T07:40:40;23.40;99.90
20690;DHT22;10504;48.762;8.996;2022-08-05T07:43:06;23.30;99.90
20690;DHT22;10504;48.762;8.996;2022-08-05T07:45:32;23.40;99.90
20690;DHT22;10504;48.762;8.996;2022-08-05T07:47:57;23.40;99.90
20690;DHT22;10504;48.762;8.996;2022-08-05T07:50:23;23.40;99.90
20690;DHT22;10504;48.762;8.996;2022-08-05T07:52:49;23.40;99.90
20690;DHT22;10504;48.762;8.996;2022-08-05T07:55:15;23.40;99.90
20690;DHT22;10504;48.762;8.996;2022-08-05T07:57:41;23.40;99.90
20690;DHT22;10504;48.762;8.996;2022-08-05T08:00:07;23.40;99.90
20690;DHT22;10504;48.762;8.996;2022-08-05T08:02:33;23.40;99.90
20690;DHT22;10504;48.762;8.996;2022-08-05T08:04:59;23.40;99.90
20690;DHT22;10504;48.762;8.996;2022-08-05T08:07:26;23.40;99.90
20690;DHT22;10504;48.762;8.996;2022-08-05T08:09:52;23.40;99.90
20690;DHT22;10504;48.762;8.996;2022-08-05T08:12:18;23.50;99.90
20690;DHT22;10504;48.762;8.996;2022-08-05T08:14:44;23.60;99.90
20690;DHT22;10504;48.762;8.996;2022-08-05T08:17:10;23.50;99.90
20690;DHT22;10504;48.762;8.996;2022-08-05T08:19:37;23.50;99.90
20690;DHT22;10504;48.762;8.996;2022-08-05T08:22:03;23.50;99.90
20690;DHT22;10504;48.762;8.996;2022-08-05T08:24:30;23.60;99.90
20690;DHT22;10504;48.762;8.996;2022-08-05T08:26:56;23.60;99.90
20690;DHT22;10504;48.762;8.996;2022-08-05T08:29:21;23.60;99.90
20690;DHT22;10504;48.762;8.996;2022-08-05T08:31:47;23.60;99.90
20690;DHT22;10504;48.762;8.996;2022-08-05T08:34:13;23.60;99.90
20690;DHT22;10504;48.762;8.996;2022-08-05T08:36:39;23.70;99.90
20690;DHT22;10504;48.762;8.996;2022-08-05T08:39:05;23.70;99.90
20690;DHT22;10504;48.762;8.996;2022-08-05T08:41:32;23.70;99.90
20690;DHT22;10504;48.762;8.996;2022-08-05T08:44:00;23.70;99.90
20690;DHT22;10504;48.762;8.996;2022-08-05T08:46:30;23.70;99.90
20690;DHT22;10504;48.762;8.996;2022-08-05T08:48:57;23.80;99.90
20690;DHT22;10504;48.762;8.996;2022-08-05T08:51:26;23.80;99.90
20690;DHT22;10504;48.762;8.996;2022-08-05T08:53:52;23.80;99.90
20690;DHT22;10504;48.762;8.996;2022-08-05T08:56:18;23.80;99.90
20690;DHT22;10504;48.762;8.996;2022-08-05T08:58:46;23.80;99.90
20690;DHT22;10504;48.762;8.996;2022-08-05T09:01:11;23.80;99.90
20690;DHT22;10504;48.762;8.996;2022-08-05T09:03:37;23.90;99.90
20690;DHT22;10504;48.762;8.996;2022-08-05T09:06:05;23.90;99.90
20690;DHT22;10504;48.762;8.996;2022-08-05T09:08:30;23.90;99.90
20690;DHT22;10504;48.762;8.996;2022-08-05T09:10:56;23.90;99.90
20690;DHT22;10504;48.762;8.996;2022-08-05T09:13:23;24.00;99.90
20690;DHT22;10504;48.762;8.996;2022-08-05T09:15:49;24.00;99.90
20690;DHT22;10504;48.762;8.996;2022-08-05T09:18:15;24.10;99.90
20690;DHT22;10504;48.762;8.996;2022-08-05T09:20:43;24.10;99.90
20690;DHT22;10504;48.762;8.996;2022-08-05T09:23:14;24.10;99.90
20690;DHT22;10504;48.762;8.996;2022-08-05T09:25:42;24.20;99.90
20690;DHT22;10504;48.762;8.996;2022-08-05T09:28:13;24.20;99.90
20690;DHT22;10504;48.762;8.996;2022-08-05T09:31:05;24.20;99.90
20690;DHT22;10504;48.762;8.996;2022-08-05T09:33:31;24.20;99.90
20690;DHT22;10504;48.762;8.996;2022-08-05T09:36:04;24.20;99.90
20690;DHT22;10504;48.762;8.996;2022-08-05T09:38:31;24.10;99.90
20690;DHT22;10504;48.762;8.996;2022-08-05T09:41:04;24.10;99.90
20690;DHT22;10504;48.762;8.996;2022-08-05T09:43:33;24.10;99.90
20690;DHT22;10504;48.762;8.996;2022-08-05T09:46:00;24.10;99.90
20690;DHT22;10504;48.762;8.996;2022-08-05T09:48:28;24.20;99.90
20690;DHT22;10504;48.762;8.996;2022-08-05T09:51:02;24.20;99.90
20690;DHT22;10504;48.762;8.996;2022-08-05T09:53:29;24.20;99.90
20690;DHT22;10504;48.762;8.996;2022-08-05T09:55:59;24.20;99.90
20690;DHT22;10504;48.762;8.996;2022-08-05T09:58:26;24.20;99.90
20690;DHT22;10504;48.762;8.996;2022-08-05T10:01:03;24.20;99.90
20690;DHT22;10504;48.762;8.996;2022-08-05T10:03:29;24.20;99.90
20690;DHT22;10504;48.762;8.996;2022-08-05T10:06:02;24.30;99.90
20690;DHT22;10504;48.762;8.996;2022-08-05T10:08:29;24.30;99.90
20690;DHT22;10504;48.762;8.996;2022-08-05T10:10:55;24.40;99.90
20690;DHT22;10504;48.762;8.996;2022-08-05T10:13:30;24.40;99.90
20690;DHT22;10504;48.762;8.996;2022-08-05T10:15:56;24.40;99.90
20690;DHT22;10504;48.762;8.996;2022-08-05T10:18:23;24.50;99.90
20690;DHT22;10504;48.762;8.996;2022-08-05T10:21:16;24.50;99.90
20690;DHT22;10504;48.762;8.996;2022-08-05T10:23:42;24.60;99.90
20690;DHT22;10504;48.762;8.996;2022-08-05T10:26:10;24.70;99.90
20690;DHT22;10504;48.762;8.996;2022-08-05T10:28:39;24.80;99.90
20690;DHT22;10504;48.762;8.996;2022-08-05T10:31:05;24.80;99.90
20690;DHT22;10504;48.762;8.996;2022-08-05T10:33:32;24.90;99.90
20690;DHT22;10504;48.762;8.996;2022-08-05T10:36:00;25.10;99.90
20690;DHT22;10504;48.762;8.996;2022-08-05T10:38:29;25.30;99.90
20690;DHT22;10504;48.762;8.996;2022-08-05T10:41:08;25.40;99.90
20690;DHT22;10504;48.762;8.996;2022-08-05T10:43:47;25.60;99.90
20690;DHT22;10504;48.762;8.996;2022-08-05T10:46:16;25.70;99.90
20690;DHT22;10504;48.762;8.996;2022-08-05T10:48:45;25.90;99.90
20690;DHT22;10504;48.762;8.996;2022-08-05T10:51:18;26.10;99.90
20690;DHT22;10504;48.762;8.996;2022-08-05T10:53:57;26.20;99.90
20690;DHT22;10504;48.762;8.996;2022-08-05T10:56:46;26.30;99.90
20690;DHT22;10504;48.762;8.996;2022-08-05T10:59:09;26.50;99.90
20690;DHT22;10504;48.762;8.996;2022-08-05T11:01:39;26.60;99.90
20690;DHT22;10504;48.762;8.996;2022-08-05T11:04:14;26.60;99.90
20690;DHT22;10504;48.762;8.996;2022-08-05T11:09:42;26.80;99.90
20690;DHT22;10504;48.762;8.996;2022-08-05T11:17:32;27.10;99.90
20690;DHT22;10504;48.762;8.996;2022-08-05T11:19:59;27.30;99.90
20690;DHT22;10504;48.762;8.996;2022-08-05T11:22:45;27.40;99.90
20690;DHT22;10504;48.762;8.996;2022-08-05T11:25:34;27.50;99.90
20690;DHT22;10504;48.762;8.996;2022-08-05T11:36:10;28.00;99.90
20690;DHT22;10504;48.762;8.996;2022-08-05T11:41:21;28.10;99.90
20690;DHT22;10504;48.762;8.996;2022-08-05T11:46:29;28.10;99.90
20690;DHT22;10504;48.762;8.996;2022-08-05T11:48:56;28.20;99.90
20690;DHT22;10504;48.762;8.996;2022-08-05T11:51:22;28.40;99.90
20690;DHT22;10504;48.762;8.996;2022-08-05T11:53:49;28.40;99.90
20690;DHT22;10504;48.762;8.996;2022-08-05T11:56:14;28.50;98.90
20690;DHT22;10504;48.762;8.996;2022-08-05T11:58:42;28.40;97.90
20690;DHT22;10504;48.762;8.996;2022-08-05T12:01:10;28.50;99.90
20690;DHT22;10504;48.762;8.996;2022-08-05T12:03:48;28.60;99.70
20690;DHT22;10504;48.762;8.996;2022-08-05T12:06:16;28.60;99.90
20690;DHT22;10504;48.762;8.996;2022-08-05T12:08:48;28.70;99.90
20690;DHT22;10504;48.762;8.996;2022-08-05T12:11:25;28.70;97.10
20690;DHT22;10504;48.762;8.996;2022-08-05T12:14:05;28.60;96.50
20690;DHT22;10504;48.762;8.996;2022-08-05T12:16:35;28.60;97.10
20690;DHT22;10504;48.762;8.996;2022-08-05T12:19:02;28.60;99.90
20690;DHT22;10504;48.762;8.996;2022-08-05T12:21:31;28.60;99.60
20690;DHT22;10504;48.762;8.996;2022-08-05T12:24:06;28.50;96.80
20690;DHT22;10504;48.762;8.996;2022-08-05T12:26:34;28.50;97.00
20690;DHT22;10504;48.762;8.996;2022-08-05T12:29:00;28.50;98.10
20690;DHT22;10504;48.762;8.996;2022-08-05T12:31:26;28.60;98.60
20690;DHT22;10504;48.762;8.996;2022-08-05T12:33:52;28.50;97.30
20690;DHT22;10504;48.762;8.996;2022-08-05T12:36:20;28.40;96.20
20690;DHT22;10504;48.762;8.996;2022-08-05T12:38:46;28.30;99.90
20690;DHT22;10504;48.762;8.996;2022-08-05T12:41:13;28.10;99.90
20690;DHT22;10504;48.762;8.996;2022-08-05T12:43:57;28.00;98.90
20690;DHT22;10504;48.762;8.996;2022-08-05T12:46:25;27.80;99.90
20690;DHT22;10504;48.762;8.996;2022-08-05T12:49:04;27.70;99.90
20690;DHT22;10504;48.762;8.996;2022-08-05T12:51:30;27.60;99.90
20690;DHT22;10504;48.762;8.996;2022-08-05T12:54:02;27.50;99.90
20690;DHT22;10504;48.762;8.996;2022-08-05T12:56:29;27.60;99.90
20690;DHT22;10504;48.762;8.996;2022-08-05T13:01:51;27.60;99.90
20690;DHT22;10504;48.762;8.996;2022-08-05T13:04:19;27.70;98.90
20690;DHT22;10504;48.762;8.996;2022-08-05T13:06:45;28.00;99.90
20690;DHT22;10504;48.762;8.996;2022-08-05T13:09:12;28.20;99.70
20690;DHT22;10504;48.762;8.996;2022-08-05T13:11:42;28.50;98.40
20690;DHT22;10504;48.762;8.996;2022-08-05T13:14:20;28.60;95.40
20690;DHT22;10504;48.762;8.996;2022-08-05T13:16:55;28.40;95.00
20690;DHT22;10504;48.762;8.996;2022-08-05T13:19:24;28.30;97.20
20690;DHT22;10504;48.762;8.996;2022-08-05T13:21:50;28.10;97.90
20690;DHT22;10504;48.762;8.996;2022-08-05T13:24:17;28.00;98.60
20690;DHT22;10504;48.762;8.996;2022-08-05T13:26:47;27.80;98.70
20690;DHT22;10504;48.762;8.996;2022-08-05T13:29:12;27.70;98.90
20690;DHT22;10504;48.762;8.996;2022-08-05T13:31:38;27.60;99.20
20690;DHT22;10504;48.762;8.996;2022-08-05T13:34:05;27.50;99.80
20690;DHT22;10504;48.762;8.996;2022-08-05T13:36:30;27.40;99.90
20690;DHT22;10504;48.762;8.996;2022-08-05T13:38:57;27.40;99.90
20690;DHT22;10504;48.762;8.996;2022-08-05T13:41:23;27.40;99.90
20690;DHT22;10504;48.762;8.996;2022-08-05T13:43:49;27.30;99.90
20690;DHT22;10504;48.762;8.996;2022-08-05T13:46:14;27.30;99.90
20690;DHT22;10504;48.762;8.996;2022-08-05T13:48:40;27.20;99.90
20690;DHT22;10504;48.762;8.996;2022-08-05T13:51:07;27.20;99.90
20690;DHT22;10504;48.762;8.996;2022-08-05T13:53:33;27.20;99.90
20690;DHT22;10504;48.762;8.996;2022-08-05T13:56:00;27.20;99.90
20690;DHT22;10504;48.762;8.996;2022-08-05T13:58:26;27.20;99.90
20690;DHT22;10504;48.762;8.996;2022-08-05T14:00:52;27.20;99.90
20690;DHT22;10504;48.762;8.996;2022-08-05T14:03:17;27.30;99.90
20690;DHT22;10504;48.762;8.996;2022-08-05T14:05:43;27.30;99.90
20690;DHT22;10504;48.762;8.996;2022-08-05T14:08:09;27.50;99.90
20690;DHT22;10504;48.762;8.996;2022-08-05T14:10:34;27.70;99.90
20690;DHT22;10504;48.762;8.996;2022-08-05T14:13:00;27.80;99.90
20690;DHT22;10504;48.762;8.996;2022-08-05T14:15:27;27.80;99.90
20690;DHT22;10504;48.762;8.996;2022-08-05T14:17:53;27.80;99.90
20690;DHT22;10504;48.762;8.996;2022-08-05T14:20:19;27.80;99.90
20690;DHT22;10504;48.762;8.996;2022-08-05T14:22:45;28.00;99.90
20690;DHT22;10504;48.762;8.996;2022-08-05T14:25:10;28.10;99.90
20690;DHT22;10504;48.762;8.996;2022-08-05T14:27:37;27.90;99.90
20690;DHT22;10504;48.762;8.996;2022-08-05T14:30:03;27.80;99.90
20690;DHT22;10504;48.762;8.996;2022-08-05T14:32:29;27.90;99.90
20690;DHT22;10504;48.762;8.996;2022-08-05T14:34:55;28.10;99.90
20690;DHT22;10504;48.762;8.996;2022-08-05T14:37:21;28.20;99.90
20690;DHT22;10504;48.762;8.996;2022-08-05T14:39:47;28.20;99.90
20690;DHT22;10504;48.762;8.996;2022-08-05T14:42:12;28.30;99.90
20690;DHT22;10504;48.762;8.996;2022-08-05T14:44:38;28.40;99.90
20690;DHT22;10504;48.762;8.996;2022-08-05T14:47:04;28.30;99.90
20690;DHT22;10504;48.762;8.996;2022-08-05T14:49:30;28.20;99.90
20690;DHT22;10504;48.762;8.996;2022-08-05T14:51:55;28.00;99.90
20690;DHT22;10504;48.762;8.996;2022-08-05T14:54:21;27.80;99.90
20690;DHT22;10504;48.762;8.996;2022-08-05T14:56:47;27.80;99.90
20690;DHT22;10504;48.762;8.996;2022-08-05T14:59:14;27.80;99.90
20690;DHT22;10504;48.762;8.996;2022-08-05T15:01:40;27.80;99.90
20690;DHT22;10504;48.762;8.996;2022-08-05T15:04:06;27.80;99.90
20690;DHT22;10504;48.762;8.996;2022-08-05T15:06:35;27.70;99.90
20690;DHT22;10504;48.762;8.996;2022-08-05T15:09:00;27.70;99.90
20690;DHT22;10504;48.762;8.996;2022-08-05T15:11:26;27.70;99.90
20690;DHT22;10504;48.762;8.996;2022-08-05T15:13:52;27.40;99.90
20690;DHT22;10504;48.762;8.996;2022-08-05T15:16:18;27.30;99.90
20690;DHT22;10504;48.762;8.996;2022-08-05T15:18:43;27.20;99.90
20690;DHT22;10504;48.762;8.996;2022-08-05T15:21:09;27.20;99.90
20690;DHT22;10504;48.762;8.996;2022-08-05T15:23:35;27.10;99.90
20690;DHT22;10504;48.762;8.996;2022-08-05T15:26:00;27.00;99.90
20690;DHT22;10504;48.762;8.996;2022-08-05T15:28:26;27.00;99.90
20690;DHT22;10504;48.762;8.996;2022-08-05T15:30:52;26.90;99.90
20690;DHT22;10504;48.762;8.996;2022-08-05T15:33:17;26.70;99.90
20690;DHT22;10504;48.762;8.996;2022-08-05T15:35:43;26.60;99.90
20690;DHT22;10504;48.762;8.996;2022-08-05T15:38:09;26.50;99.90
20690;DHT22;10504;48.762;8.996;2022-08-05T15:40:34;26.50;99.90
20690;DHT22;10504;48.762;8.996;2022-08-05T15:43:00;26.50;99.90
20690;DHT22;10504;48.762;8.996;2022-08-05T15:45:26;26.40;99.90
20690;DHT22;10504;48.762;8.996;2022-08-05T15:47:53;26.30;99.90
20690;DHT22;10504;48.762;8.996;2022-08-05T15:50:19;26.30;99.90
20690;DHT22;10504;48.762;8.996;2022-08-05T15:52:44;26.30;99.90
20690;DHT22;10504;48.762;8.996;2022-08-05T15:55:11;26.30;99.90
20690;DHT22;10504;48.762;8.996;2022-08-05T15:57:39;26.30;99.90
20690;DHT22;10504;48.762;8.996;2022-08-05T16:00:06;26.30;99.90
20690;DHT22;10504;48.762;8.996;2022-08-05T16:02:32;26.30;99.90